createdAt,value
2017-08-04T00:04:31.356Z,23.10
2017-08-04T00:10:00.481Z,23.10
2017-08-04T00:15:28.688Z,23.00
2017-08-04T00:20:56.896Z,23.00
2017-08-04T00:26:25.095Z,23.00
2017-08-04T00:31:53.280Z,23.00
2017-08-04T00:37:21.577Z,23.00
2017-08-04T00:42:49.773Z,23.00
2017-08-04T00:48:18.496Z,23.00
2017-08-04T00:53:48.480Z,22.90
2017-08-04T00:59:16.727Z,22.90
2017-08-04T01:04:44.901Z,22.90
2017-08-04T01:10:13.908Z,22.90
2017-08-04T01:15:42.076Z,22.80
2017-08-04T01:21:11.191Z,22.80
2017-08-04T01:26:39.363Z,22.80
2017-08-04T01:32:07.585Z,22.80
2017-08-04T01:37:35.872Z,22.80
2017-08-04T01:43:04.058Z,22.80
2017-08-04T01:48:32.998Z,22.80
2017-08-04T01:54:01.281Z,22.80
2017-08-04T01:59:30.094Z,22.70
2017-08-04T02:04:58.270Z,22.60
2017-08-04T02:10:26.440Z,22.60
2017-08-04T02:15:54.596Z,22.50
2017-08-04T02:21:22.867Z,22.50
2017-08-04T02:26:51.160Z,22.50
2017-08-04T02:32:20.161Z,22.50
2017-08-04T02:37:48.368Z,22.50
2017-08-04T02:43:20.240Z,22.40
2017-08-04T02:48:49.640Z,22.50
2017-08-04T02:54:17.787Z,22.40
2017-08-04T02:59:46.738Z,22.40
2017-08-04T03:05:14.933Z,22.30
2017-08-04T03:10:43.108Z,22.30
2017-08-04T03:16:21.516Z,22.30
2017-08-04T03:21:49.706Z,22.30
2017-08-04T03:27:18.202Z,22.30
2017-08-04T03:32:47.132Z,22.20
2017-08-04T03:38:18.573Z,22.20
2017-08-04T03:43:46.767Z,22.20
2017-08-04T03:49:16.848Z,22.20
2017-08-04T03:54:45.264Z,22.20
2017-08-04T04:00:13.448Z,22.30
2017-08-04T04:05:43.664Z,22.30
2017-08-04T04:11:11.993Z,22.30
2017-08-04T04:16:41.444Z,22.30
2017-08-04T04:22:10.764Z,22.30
2017-08-04T04:27:38.964Z,22.30
2017-08-04T04:33:07.155Z,22.30
2017-08-04T04:38:35.712Z,22.20
2017-08-04T04:44:05.853Z,22.20
2017-08-04T04:49:34.161Z,22.10
2017-08-04T04:55:02.974Z,22.00
2017-08-04T05:00:32.119Z,21.90
2017-08-04T05:06:01.123Z,21.90
2017-08-04T05:11:29.323Z,21.80
2017-08-04T05:16:57.504Z,21.80
2017-08-04T05:22:26.508Z,21.80
2017-08-04T05:27:54.725Z,21.70
2017-08-04T05:33:22.903Z,21.70
2017-08-04T05:38:51.067Z,21.60
2017-08-04T05:44:19.257Z,21.60
2017-08-04T05:49:47.427Z,21.70
2017-08-04T05:55:15.648Z,21.80
2017-08-04T06:00:44.622Z,21.90
2017-08-04T06:06:13.560Z,21.90
2017-08-04T06:11:42.392Z,22.00
2017-08-04T06:17:10.644Z,22.10
2017-08-04T06:22:39.585Z,22.20
2017-08-04T06:28:08.077Z,22.40
2017-08-04T06:33:36.321Z,22.70
2017-08-04T06:39:04.738Z,22.90
2017-08-04T06:44:32.939Z,23.10
2017-08-04T06:50:29.225Z,23.20
2017-08-04T06:56:09.712Z,23.30
2017-08-04T07:01:39.916Z,23.50
2017-08-04T07:07:08.235Z,23.60
2017-08-04T07:12:36.413Z,23.70
2017-08-04T07:18:14.449Z,23.80
2017-08-04T07:23:46.909Z,24.00
2017-08-04T07:29:15.092Z,24.10
2017-08-04T07:34:44.103Z,24.30
2017-08-04T07:40:16.028Z,24.40
2017-08-04T07:45:47.281Z,24.60
2017-08-04T07:51:16.944Z,24.70
2017-08-04T07:56:46.752Z,24.80
2017-08-04T08:02:14.934Z,25.00
2017-08-04T08:07:43.135Z,25.40
2017-08-04T08:13:11.289Z,25.60
2017-08-04T08:18:39.475Z,25.80
2017-08-04T08:24:07.658Z,26.20
2017-08-04T08:29:35.871Z,26.40
2017-08-04T08:35:04.031Z,26.40
2017-08-04T08:40:32.203Z,26.60
2017-08-04T08:46:01.365Z,26.80
2017-08-04T08:51:29.580Z,26.90
2017-08-04T08:56:58.080Z,27.00
2017-08-04T09:02:26.241Z,27.00
2017-08-04T09:07:54.389Z,26.90
2017-08-04T09:13:22.679Z,26.60
2017-08-04T09:18:50.843Z,26.60
2017-08-04T09:24:19.019Z,26.60
2017-08-04T09:29:47.215Z,26.60
2017-08-04T09:35:15.445Z,26.60
2017-08-04T09:40:44.396Z,26.70
2017-08-04T09:46:15.072Z,26.90
2017-08-04T09:51:43.287Z,27.10
2017-08-04T09:57:11.800Z,27.00
2017-08-04T10:02:39.955Z,26.90
2017-08-04T10:08:08.099Z,26.80
2017-08-04T10:13:36.261Z,26.80
2017-08-04T10:19:04.464Z,26.80
2017-08-04T10:24:32.616Z,26.90
2017-08-04T10:30:00.781Z,27.40
2017-08-04T10:35:29.058Z,27.90
2017-08-04T10:40:58.149Z,28.00
2017-08-04T10:46:26.403Z,28.30
2017-08-04T10:51:54.925Z,28.80
2017-08-04T10:57:23.151Z,29.00
2017-08-04T11:02:51.336Z,29.20
2017-08-04T11:08:19.501Z,29.30
2017-08-04T11:13:47.690Z,29.60
2017-08-04T11:19:15.916Z,29.60
2017-08-04T11:24:44.093Z,30.00
2017-08-04T11:30:12.284Z,30.10
2017-08-04T11:35:40.442Z,30.00
2017-08-04T11:41:08.768Z,29.70
2017-08-04T11:46:36.972Z,29.50
2017-08-04T11:52:05.165Z,29.50
2017-08-04T11:57:33.392Z,29.20
2017-08-04T12:03:01.549Z,29.00
2017-08-04T12:08:30.496Z,29.00
2017-08-04T12:13:58.664Z,29.00
2017-08-04T12:19:26.925Z,29.10
2017-08-04T12:24:55.119Z,28.90
2017-08-04T12:30:23.323Z,28.80
2017-08-04T12:35:51.483Z,28.70
2017-08-04T12:41:20.599Z,28.60
2017-08-04T12:46:49.374Z,28.60
2017-08-04T12:52:18.411Z,29.20
2017-08-04T12:57:47.857Z,29.30
2017-08-04T13:03:17.311Z,29.40
2017-08-04T13:08:45.471Z,29.50
2017-08-04T13:14:13.615Z,29.60
2017-08-04T13:19:41.769Z,29.80
2017-08-04T13:25:10.031Z,29.70
2017-08-04T13:30:38.311Z,29.40
2017-08-04T13:36:07.241Z,29.20
2017-08-04T13:41:35.399Z,29.00
2017-08-04T13:47:03.589Z,28.80
2017-08-04T13:52:31.754Z,28.70
2017-08-04T13:58:01.950Z,28.70
2017-08-04T14:03:30.265Z,28.70
2017-08-04T14:08:58.503Z,28.50
2017-08-04T14:14:26.706Z,28.40
2017-08-04T14:19:54.850Z,28.40
2017-08-04T14:25:23.030Z,28.30
2017-08-04T14:30:51.225Z,28.10
2017-08-04T14:36:19.385Z,28.00
2017-08-04T14:41:48.338Z,27.90
2017-08-04T14:47:17.259Z,27.90
2017-08-04T14:52:45.571Z,27.80
2017-08-04T14:58:13.722Z,27.70
2017-08-04T15:03:41.900Z,27.70
2017-08-04T15:09:10.925Z,27.70
2017-08-04T15:14:39.144Z,27.60
2017-08-04T15:20:08.060Z,27.60
2017-08-04T15:25:36.244Z,27.60
2017-08-04T15:31:04.404Z,27.50
2017-08-04T15:36:33.437Z,27.50
2017-08-04T15:42:02.432Z,27.60
2017-08-04T15:47:30.592Z,27.70
2017-08-04T15:52:58.762Z,27.80
2017-08-04T15:58:26.928Z,27.90
2017-08-04T16:03:55.089Z,28.00
2017-08-04T16:09:23.268Z,27.90
2017-08-04T16:14:51.440Z,27.80
2017-08-04T16:20:20.412Z,27.90
2017-08-04T16:25:49.387Z,27.90
2017-08-04T16:31:17.555Z,27.80
2017-08-04T16:36:45.754Z,27.70
2017-08-04T16:42:13.932Z,27.50
2017-08-04T16:47:42.110Z,27.40
2017-08-04T16:53:11.044Z,27.30
2017-08-04T16:58:39.225Z,27.10
2017-08-04T17:04:07.384Z,27.00
2017-08-04T17:09:35.561Z,26.80
2017-08-04T17:15:03.756Z,26.80
2017-08-04T17:20:35.542Z,26.70
2017-08-04T17:26:04.997Z,26.70
2017-08-04T17:31:33.295Z,26.70
2017-08-04T17:37:01.449Z,26.60
2017-08-04T17:42:29.639Z,26.50
2017-08-04T17:47:58.733Z,26.40
2017-08-04T17:53:26.875Z,26.30
2017-08-04T17:58:55.783Z,26.30
2017-08-04T18:04:24.040Z,26.20
2017-08-04T18:09:52.203Z,26.10
2017-08-04T18:15:20.417Z,26.10
2017-08-04T18:20:49.358Z,26.00
2017-08-04T18:26:17.659Z,26.00
2017-08-04T18:31:46.597Z,25.90
2017-08-04T18:37:14.790Z,25.90
2017-08-04T18:42:42.955Z,25.80
2017-08-04T18:48:11.096Z,25.80
2017-08-04T18:53:39.268Z,25.70
2017-08-04T18:59:07.427Z,25.60
2017-08-04T19:04:36.640Z,25.40
2017-08-04T19:10:05.582Z,25.20
2017-08-04T19:15:34.510Z,25.00
2017-08-04T19:21:03.033Z,24.80
2017-08-04T19:26:31.943Z,24.70
2017-08-04T19:32:00.116Z,24.50
2017-08-04T19:37:28.279Z,24.30
2017-08-04T19:42:58.358Z,24.10
2017-08-04T19:48:26.700Z,24.00
2017-08-04T19:53:54.904Z,23.80
2017-08-04T19:59:23.151Z,23.70
2017-08-04T20:04:52.295Z,23.60
2017-08-04T20:10:20.505Z,23.40
2017-08-04T20:15:48.969Z,23.30
2017-08-04T20:21:17.627Z,23.30
2017-08-04T20:26:45.821Z,23.20
2017-08-04T20:32:14.951Z,23.10
2017-08-04T20:37:43.092Z,23.00
2017-08-04T20:43:11.241Z,22.90
2017-08-04T20:48:39.391Z,22.90
2017-08-04T20:54:07.562Z,22.80
2017-08-04T20:59:35.762Z,22.80
2017-08-04T21:05:03.924Z,22.80
2017-08-04T21:10:32.928Z,22.80
2017-08-04T21:16:01.088Z,22.80
2017-08-04T21:21:33.810Z,22.80
2017-08-04T21:27:01.955Z,22.80
2017-08-04T21:32:30.106Z,22.80
2017-08-04T21:37:58.258Z,22.80
2017-08-04T21:43:26.441Z,22.80
2017-08-04T21:48:54.610Z,22.80
2017-08-04T21:54:22.776Z,22.80
2017-08-04T21:59:50.949Z,22.80
2017-08-04T22:05:19.154Z,22.90
2017-08-04T22:10:49.591Z,22.80
2017-08-04T22:16:17.821Z,22.80
2017-08-04T22:21:46.007Z,22.80
2017-08-04T22:27:14.211Z,22.80
2017-08-04T22:32:42.364Z,22.70
2017-08-04T22:38:21.288Z,22.70
2017-08-04T22:43:49.444Z,22.70
2017-08-04T22:49:17.612Z,22.70
2017-08-04T22:54:45.865Z,22.70
2017-08-04T23:00:14.026Z,22.70
2017-08-04T23:05:42.180Z,22.60
2017-08-04T23:11:12.335Z,22.60
2017-08-04T23:16:40.713Z,22.60
2017-08-04T23:22:11.164Z,22.50
2017-08-04T23:27:39.339Z,22.50
2017-08-04T23:33:33.347Z,22.50
2017-08-04T23:39:02.281Z,22.40
2017-08-04T23:44:30.474Z,22.40
2017-08-04T23:49:59.487Z,22.40
2017-08-04T23:55:27.649Z,22.30
